This is the latest recevied weather packets stored in our database for station/object HI3RRR-13. If no packets are shown the sender has not sent any weather packets the latest 10 day(s).
| Time | Temp. | Humidity | Pressure | Rain* | Wind** | Luminosity | Snow |
|---|---|---|---|---|---|---|---|
| 1787936946 | 35° C | 44% | 1015 hPa | 0 mm | - | - | - |
| 1787936345 | 33.33° C | 49% | 1015 hPa | 0 mm | - | - | - |
| 1787935744 | 33.33° C | 49% | 1015 hPa | 0 mm | - | - | - |
| 1787935143 | 33.33° C | 49% | 1015 hPa | 0 mm | - | - | - |
| 1787934542 | 33.33° C | 49% | 1015 hPa | 0 mm | - | - | - |
| 1787933941 | 33.33° C | 50% | 1015 hPa | 0 mm | - | - | - |
| 1787933340 | 33.33° C | 52% | 1015 hPa | 0 mm | - | - | - |
| 1787932739 | 31.67° C | 58% | 1015 hPa | 0 mm | - | - | - |
| 1787932139 | 31.67° C | 58% | 1015 hPa | 0 mm | - | - | - |
| 1787931537 | 31.67° C | 58% | 1015 hPa | 0 mm | - | - | - |
| 1787930936 | 31.67° C | 58% | 1016 hPa | 0 mm | - | - | - |
| 1787930335 | 31.67° C | 58% | 1016 hPa | 0 mm | - | - | - |
| 1787929734 | 31.67° C | 58% | 1016 hPa | 0 mm | - | - | - |
| 1787929133 | 29.44° C | 70% | 1016 hPa | 0 mm | - | - | - |
| 1787928532 | 29.44° C | 70% | 1016 hPa | 0 mm | - | - | - |
| 1787927931 | 29.44° C | 70% | 1016 hPa | 0 mm | - | - | - |
| 1787927330 | 29.44° C | 70% | 1016 hPa | 0 mm | - | - | - |
| 1787926729 | 29.44° C | 70% | 1016 hPa | 0 mm | - | - | - |
| 1787926127 | 30° C | 71% | 1016 hPa | 0 mm | - | - | - |
| 1787925452 | 32.22° C | 74% | 1016 hPa | 0 mm | - | - | - |
| 1787924851 | 32.22° C | 74% | 1016 hPa | 0 mm | - | - | - |
| 1787924250 | 27.78° C | 78% | 1016 hPa | 0 mm | - | - | - |
| 1787923649 | 27.22° C | 78% | 1016 hPa | 0 mm | - | - | - |
| 1787923048 | 27.22° C | 79% | 1016 hPa | 0 mm | - | - | - |
| 1787922446 | 27.22° C | 82% | 1016 hPa | 0 mm | - | - | - |
* Rain latest hour (hover to see other rain measurements)
** Current wind speed in m/s (hover to see current wind gust speed)